Terminal Aerodrome Forecast
Issued by NWS Jackson, MS

Home | Current Version | Previous Version | Text Only | Print | Product List | Glossary On
Versions: 1 2 3 4 5 6 7 8 9 10 11 12 13 14 15
000
FTUS44 KMEG 251139
TAFTUP
TAF
KTUP 251139Z 2512/2612 VRB05KT P6SM VCSH SCT020 BKN030
     FM251500 VRB05KT P6SM SCT040
     FM260000 09005KT P6SM VCSH BKN035
     FM260200 05005KT 3SM -RA BR OVC007=

USA.gov is the U.S. government's official web portal to all federal, state and local government web resources and services.